Terminal Aerodrome Forecast
Issued by NWS

Home | Current Version | Previous Version | Text Only | Print | Product List | Glossary On
Versions: 1 2 3 4 5 6 7 8 9 10 11 12 13 14
315
FTUS42 TJSJ 200919 AAA
TAFJBQ
TAF AMD
TJBQ 200919Z 2009/2106 08010KT P6SM VCSH SCT030 SCT070
     FM201300 09009KT P6SM SCT030
      TEMPO 2016/2020 TSRA BKN020CB
     FM202200 11010KT P6SM SCT050
      AMD NOT SKED TIL 201100=

USA.gov is the U.S. government's official web portal to all federal, state and local government web resources and services.